Time;durP1;ratioP1;P1;durP2;ratioP2;P2;SDS_P1;SDS_P2;PMS_P1;PMS_P2;Temp;Humidity;BMP_temperature;BMP_pressure;BME280_temperature;BME280_humidity;BME280_pressure;Samples;Min_cycle;Max_cycle;Signal;HPM_P1;HPM_P2
2021/04/19 00:00:20;;;;;;;27.65;18.92;;;8.80;99.90;;;;;;5012806;28;20088;-76
2021/04/19 00:02:46;;;;;;;30.25;19.48;;;9.00;99.90;;;;;;5012122;28;20129;-76
2021/04/19 00:05:18;;;;;;;30.58;19.70;;;9.10;99.90;;;;;;5013002;28;20044;-76
2021/04/19 00:07:44;;;;;;;25.23;18.52;;;9.20;99.90;;;;;;5011564;28;20022;-76
2021/04/19 00:10:11;;;;;;;31.15;19.45;;;9.20;99.90;;;;;;5012765;28;20033;-76
2021/04/19 00:12:37;;;;;;;29.45;19.80;;;9.00;99.90;;;;;;5012498;28;20024;-76
2021/04/19 00:15:06;;;;;;;31.58;19.15;;;9.00;99.90;;;;;;5011882;28;20117;-77
2021/04/19 00:17:33;;;;;;;28.37;18.70;;;9.00;99.90;;;;;;5012448;28;20034;-75
2021/04/19 00:19:59;;;;;;;29.77;19.52;;;9.10;99.90;;;;;;5011839;28;20028;-76
2021/04/19 00:22:25;;;;;;;26.05;18.38;;;9.20;99.90;;;;;;5012247;28;20038;-75
2021/04/19 00:24:51;;;;;;;28.50;17.75;;;9.20;99.90;;;;;;5011562;28;20026;-75
2021/04/19 00:27:17;;;;;;;28.85;18.85;;;9.20;99.90;;;;;;5012509;28;20037;-75
2021/04/19 00:29:43;;;;;;;30.80;19.05;;;9.10;99.90;;;;;;5011550;28;20034;-75
2021/04/19 00:32:08;;;;;;;31.85;19.35;;;8.90;99.90;;;;;;5012622;28;20026;-73
2021/04/19 00:34:35;;;;;;;34.65;19.90;;;8.40;99.90;;;;;;5011563;28;20046;-75
2021/04/19 00:37:00;;;;;;;33.13;20.45;;;8.40;99.90;;;;;;5012365;28;20040;-74
2021/04/19 00:39:26;;;;;;;30.38;18.48;;;8.50;99.90;;;;;;5020923;28;20029;-75
2021/04/19 00:41:52;;;;;;;26.88;17.73;;;8.50;99.90;;;;;;5031537;28;20040;-75
2021/04/19 00:44:18;;;;;;;25.35;15.73;;;8.50;99.90;;;;;;5031188;28;20029;-76
2021/04/19 00:46:47;;;;;;;21.77;15.27;;;8.50;99.90;;;;;;5031973;28;20033;-74
2021/04/19 00:49:14;;;;;;;23.48;16.65;;;8.50;99.90;;;;;;5012999;28;20037;-75
2021/04/19 00:51:40;;;;;;;21.50;14.82;;;8.70;99.90;;;;;;5031712;28;20022;-75
2021/04/19 00:54:07;;;;;;;29.75;16.45;;;8.80;99.90;;;;;;5013031;28;20025;-75
2021/04/19 00:56:33;;;;;;;30.27;15.25;;;9.00;99.90;;;;;;5031272;28;20117;-75
2021/04/19 00:58:58;;;;;;;21.02;14.20;;;9.10;99.90;;;;;;5031027;28;20093;-76
2021/04/19 01:01:26;;;;;;;17.05;12.43;;;9.00;99.90;;;;;;5031646;28;20120;-75
2021/04/19 01:03:52;;;;;;;19.88;12.30;;;8.80;99.90;;;;;;5030728;28;20117;-76
2021/04/19 01:06:18;;;;;;;16.40;11.88;;;8.80;99.90;;;;;;5031546;28;20108;-74
2021/04/19 01:08:44;;;;;;;16.75;11.27;;;8.60;99.90;;;;;;5030509;28;20400;-75
2021/04/19 01:11:09;;;;;;;14.40;10.88;;;8.60;99.90;;;;;;5031455;28;20022;-74
2021/04/19 01:13:35;;;;;;;14.32;11.50;;;8.70;99.90;;;;;;5030618;28;20026;-75
2021/04/19 01:16:01;;;;;;;15.82;10.93;;;8.60;99.90;;;;;;5031129;28;20457;-75
2021/04/19 01:18:27;;;;;;;14.50;11.23;;;8.60;99.90;;;;;;5012935;28;20548;-74
2021/04/19 01:20:53;;;;;;;17.17;11.75;;;8.60;99.90;;;;;;5031511;28;20037;-76
2021/04/19 01:23:19;;;;;;;16.27;11.57;;;8.30;99.90;;;;;;5031412;28;20032;-77
2021/04/19 01:25:46;;;;;;;19.35;11.90;;;8.30;99.90;;;;;;5030521;28;20104;-76
2021/04/19 01:28:16;;;;;;;18.85;12.20;;;8.30;99.90;;;;;;5031324;28;20029;-76
2021/04/19 01:30:44;;;;;;;14.85;11.63;;;8.40;99.90;;;;;;5030483;28;20037;-73
2021/04/19 01:33:10;;;;;;;16.23;11.80;;;8.30;99.90;;;;;;5031305;28;20900;-74
2021/04/19 01:35:36;;;;;;;16.23;11.90;;;8.30;99.90;;;;;;5030619;28;20058;-74
2021/04/19 01:38:06;;;;;;;21.63;12.43;;;8.30;99.90;;;;;;5031139;28;20465;-73
2021/04/19 01:40:33;;;;;;;16.95;12.82;;;8.20;99.90;;;;;;5013137;28;20088;-74
2021/04/19 01:42:59;;;;;;;16.02;11.18;;;8.30;99.90;;;;;;5011491;28;20405;-74
2021/04/19 01:45:25;;;;;;;15.40;11.43;;;8.30;99.90;;;;;;5010969;28;20040;-75
2021/04/19 01:47:54;;;;;;;17.33;12.95;;;8.40;99.90;;;;;;5011223;28;20118;-75
2021/04/19 01:50:27;;;;;;;17.05;12.55;;;8.40;99.90;;;;;;5010850;28;20051;-76
2021/04/19 01:52:53;;;;;;;16.67;12.60;;;8.50;99.90;;;;;;5012874;28;20033;-76
2021/04/19 01:55:22;;;;;;;17.80;12.70;;;8.40;99.90;;;;;;5014729;28;20099;-75
2021/04/19 01:57:54;;;;;;;18.27;12.32;;;8.40;99.90;;;;;;5015087;28;20057;-75
2021/04/19 02:00:23;;;;;;;16.30;11.63;;;8.50;99.90;;;;;;5014353;28;20026;-75
2021/04/19 02:03:07;;;;;;;16.77;12.50;;;8.40;99.90;;;;;;5014533;28;20022;-73
2021/04/19 02:05:51;;;;;;;15.63;11.60;;;8.50;99.90;;;;;;5014200;28;20022;-73
2021/04/19 02:08:44;;;;;;;15.48;11.90;;;8.50;99.90;;;;;;5014878;28;20029;-74
2021/04/19 02:11:45;;;;;;;15.40;12.32;;;8.40;99.90;;;;;;4971613;28;20045;-73
2021/04/19 02:14:16;;;;;;;16.40;11.98;;;8.40;99.90;;;;;;5014108;28;20030;-74
2021/04/19 02:16:42;;;;;;;14.68;11.75;;;8.20;99.90;;;;;;5015131;28;20033;-73
2021/04/19 02:19:40;;;;;;;15.15;11.80;;;8.20;99.90;;;;;;5014536;28;20030;-75
2021/04/19 02:22:23;;;;;;;15.85;12.50;;;8.50;99.90;;;;;;4927700;28;20441;-74
2021/04/19 02:24:52;;;;;;;21.67;13.02;;;8.50;99.90;;;;;;5014132;28;20026;-75
2021/04/19 02:27:30;;;;;;;20.00;12.25;;;8.40;99.90;;;;;;5014484;28;20029;-75
2021/04/19 02:29:59;;;;;;;17.52;12.40;;;8.50;99.90;;;;;;4997318;28;20025;-75
2021/04/19 02:32:32;;;;;;;19.92;12.80;;;8.60;99.90;;;;;;5014347;28;20029;-74
2021/04/19 02:35:03;;;;;;;17.80;12.85;;;8.60;99.90;;;;;;5013198;28;20038;-74
2021/04/19 02:37:30;;;;;;;19.00;12.93;;;8.70;99.90;;;;;;5014367;28;20169;-73
2021/04/19 02:39:58;;;;;;;22.63;13.60;;;8.70;99.90;;;;;;5024818;28;20026;-75
2021/04/19 02:42:25;;;;;;;16.52;13.35;;;8.70;99.90;;;;;;5033766;28;20044;-74
2021/04/19 02:44:53;;;;;;;17.45;12.75;;;8.60;99.90;;;;;;5033441;28;20072;-75
2021/04/19 02:47:21;;;;;;;16.55;11.98;;;8.60;99.90;;;;;;5033960;28;20033;-74
2021/04/19 02:49:47;;;;;;;16.15;11.95;;;8.70;99.90;;;;;;5033307;28;20030;-75
2021/04/19 02:52:14;;;;;;;16.45;12.50;;;8.70;99.90;;;;;;5033511;28;20029;-75
2021/04/19 02:54:41;;;;;;;17.52;12.77;;;8.60;99.90;;;;;;5033416;28;20105;-75
2021/04/19 02:57:44;;;;;;;16.40;12.98;;;8.60;99.90;;;;;;5033732;28;20037;-75
2021/04/19 03:00:10;;;;;;;17.67;13.35;;;8.70;99.90;;;;;;5017337;28;20061;-76
2021/04/19 03:02:37;;;;;;;17.77;12.60;;;8.60;99.90;;;;;;5033620;28;20048;-77
2021/04/19 03:05:06;;;;;;;16.88;12.88;;;8.60;99.90;;;;;;5032926;28;20033;-75
2021/04/19 03:07:40;;;;;;;17.90;12.55;;;8.40;99.90;;;;;;5033327;28;20108;-74
2021/04/19 03:10:12;;;;;;;16.35;12.63;;;8.30;99.90;;;;;;5032998;28;20083;-74
2021/04/19 03:12:42;;;;;;;18.27;13.35;;;8.50;99.90;;;;;;5033382;28;20018;-74
2021/04/19 03:15:14;;;;;;;17.27;12.57;;;8.50;99.90;;;;;;5032551;28;20041;-75
2021/04/19 03:17:40;;;;;;;15.90;12.32;;;8.50;99.90;;;;;;5033276;28;20029;-74
2021/04/19 03:20:07;;;;;;;15.90;12.85;;;8.60;99.90;;;;;;5032792;28;20037;-73
2021/04/19 03:22:36;;;;;;;17.67;12.20;;;8.60;99.90;;;;;;5033113;28;20022;-75
2021/04/19 03:25:05;;;;;;;17.67;12.10;;;8.50;99.90;;;;;;5032730;28;20021;-74
2021/04/19 03:27:33;;;;;;;16.52;12.32;;;8.50;99.90;;;;;;5033159;28;20021;-74
2021/04/19 03:30:00;;;;;;;17.05;12.52;;;8.40;99.90;;;;;;5033055;28;20053;-75
2021/04/19 03:32:31;;;;;;;16.27;13.20;;;8.30;99.90;;;;;;5032446;28;20022;-75
2021/04/19 03:34:59;;;;;;;20.13;12.15;;;8.30;99.90;;;;;;5032081;28;20077;-74
2021/04/19 03:37:30;;;;;;;15.55;12.40;;;8.30;99.90;;;;;;5032775;28;20030;-75
2021/04/19 03:40:05;;;;;;;19.63;12.80;;;8.40;99.90;;;;;;5023746;28;20036;-76
2021/04/19 03:42:33;;;;;;;16.58;12.45;;;8.30;99.90;;;;;;5012570;28;20017;-75
2021/04/19 03:45:02;;;;;;;19.25;12.95;;;8.30;99.90;;;;;;5013108;28;20109;-74
2021/04/19 03:47:29;;;;;;;17.25;12.50;;;8.30;99.90;;;;;;5012337;28;20022;-74
2021/04/19 03:49:58;;;;;;;17.27;13.38;;;8.30;99.90;;;;;;5013034;28;20133;-74
2021/04/19 03:52:31;;;;;;;17.35;13.27;;;8.30;99.90;;;;;;5012462;28;20497;-74
2021/04/19 03:54:59;;;;;;;19.50;13.88;;;8.30;99.90;;;;;;5012851;28;20042;-74
2021/04/19 03:57:26;;;;;;;17.27;13.35;;;8.20;99.90;;;;;;5012361;28;20026;-74
2021/04/19 03:59:56;;;;;;;20.42;13.52;;;8.30;99.90;;;;;;5012910;28;20152;-75
2021/04/19 04:02:24;;;;;;;17.77;13.40;;;8.30;99.90;;;;;;5012021;28;20124;-73
2021/04/19 04:04:50;;;;;;;17.48;13.48;;;8.30;99.90;;;;;;5012871;28;20033;-74
2021/04/19 04:07:17;;;;;;;19.50;13.27;;;8.40;99.90;;;;;;5012148;28;20032;-74
2021/04/19 04:09:43;;;;;;;19.38;12.77;;;8.40;99.90;;;;;;5012754;28;20040;-75
2021/04/19 04:12:10;;;;;;;17.40;13.82;;;8.50;99.90;;;;;;5012034;28;20045;-74
2021/04/19 04:14:47;;;;;;;19.08;14.05;;;8.60;99.90;;;;;;4994985;28;20060;-75
2021/04/19 04:17:14;;;;;;;17.02;13.13;;;8.60;99.90;;;;;;5012204;28;20042;-75
2021/04/19 04:19:40;;;;;;;18.30;13.70;;;8.60;99.90;;;;;;5012542;28;20022;-75
2021/04/19 04:22:07;;;;;;;20.55;14.80;;;8.60;99.90;;;;;;5012012;28;20109;-74
2021/04/19 04:24:33;;;;;;;17.27;13.20;;;8.60;99.90;;;;;;5012389;28;20049;-75
2021/04/19 04:26:59;;;;;;;18.73;13.95;;;8.70;99.90;;;;;;5012095;28;20026;-75
2021/04/19 04:29:25;;;;;;;20.88;14.25;;;8.70;99.90;;;;;;5012296;28;20033;-74
2021/04/19 04:31:51;;;;;;;19.77;14.73;;;8.30;99.90;;;;;;4993832;28;20089;-75
2021/04/19 04:34:16;;;;;;;19.67;14.73;;;8.00;99.90;;;;;;5012203;28;20033;-76
2021/04/19 04:36:43;;;;;;;17.55;13.63;;;8.30;99.90;;;;;;5011723;28;20061;-73
2021/04/19 04:39:09;;;;;;;20.98;13.95;;;8.50;99.90;;;;;;5013435;28;20052;-77
2021/04/19 04:41:34;;;;;;;20.15;15.02;;;8.70;99.90;;;;;;5031392;28;20112;-75
2021/04/19 04:44:04;;;;;;;23.27;14.48;;;8.80;99.90;;;;;;5031962;28;20382;-75
2021/04/19 04:46:51;;;;;;;19.88;14.18;;;8.70;99.90;;;;;;5030868;28;20022;-74
2021/04/19 04:49:24;;;;;;;19.92;13.63;;;8.70;99.90;;;;;;5031967;28;20041;-74
2021/04/19 04:51:53;;;;;;;17.35;13.50;;;8.70;99.90;;;;;;5030827;28;20029;-76
2021/04/19 04:54:21;;;;;;;22.27;14.68;;;8.80;99.90;;;;;;5031629;28;20036;-74
2021/04/19 04:56:53;;;;;;;22.13;14.77;;;8.90;99.90;;;;;;5031166;28;20108;-74
2021/04/19 04:59:21;;;;;;;20.92;13.90;;;8.90;99.90;;;;;;5031303;28;20025;-75
2021/04/19 05:01:47;;;;;;;17.58;13.15;;;8.90;99.90;;;;;;5031206;28;20024;-73
2021/04/19 05:04:14;;;;;;;19.15;13.52;;;9.00;99.90;;;;;;5031667;28;20037;-74
2021/04/19 05:06:41;;;;;;;23.05;14.43;;;9.00;99.90;;;;;;5030721;28;20029;-74
2021/04/19 05:09:11;;;;;;;22.73;16.33;;;8.90;99.90;;;;;;5031129;28;20026;-74
2021/04/19 05:11:40;;;;;;;22.95;15.88;;;8.90;99.90;;;;;;5030856;28;20037;-74
2021/04/19 05:14:06;;;;;;;22.93;15.73;;;8.80;99.90;;;;;;5031308;28;20599;-74
2021/04/19 05:16:32;;;;;;;38.80;24.88;;;8.80;99.90;;;;;;5031083;28;20029;-75
2021/04/19 05:19:03;;;;;;;108.10;62.38;;;9.30;99.90;;;;;;5031352;28;20053;-74
2021/04/19 05:21:29;;;;;;;56.05;37.50;;;9.30;99.90;;;;;;5030432;28;20061;-73
2021/04/19 05:23:56;;;;;;;53.78;35.25;;;9.40;99.90;;;;;;5031260;28;20060;-72
2021/04/19 05:26:22;;;;;;;47.28;30.38;;;9.40;99.90;;;;;;5032433;28;20025;-73
2021/04/19 05:28:48;;;;;;;218.80;124.00;;;9.50;99.90;;;;;;5034165;28;20109;-74
2021/04/19 05:31:15;;;;;;;30.33;23.58;;;9.40;99.90;;;;;;5035541;28;20025;-74
2021/04/19 05:33:41;;;;;;;24.95;18.85;;;9.20;99.90;;;;;;5034673;28;20030;-75
2021/04/19 05:36:10;;;;;;;24.38;16.95;;;9.00;99.90;;;;;;5027054;28;20058;-74
2021/04/19 05:38:38;;;;;;;21.53;16.23;;;8.80;99.90;;;;;;5014482;28;20022;-74
2021/04/19 05:41:04;;;;;;;23.90;16.40;;;8.80;99.90;;;;;;5030834;28;20036;-74
2021/04/19 05:43:30;;;;;;;22.98;16.52;;;8.90;99.90;;;;;;5033808;28;20029;-74
2021/04/19 05:46:01;;;;;;;22.50;15.38;;;8.90;99.90;;;;;;5030275;28;20104;-73
2021/04/19 05:48:27;;;;;;;23.58;16.33;;;8.90;99.90;;;;;;5014648;28;20049;-73
2021/04/19 05:50:56;;;;;;;21.70;15.93;;;8.80;99.90;;;;;;5014862;28;20386;-74
2021/04/19 05:53:22;;;;;;;23.58;16.00;;;8.90;99.90;;;;;;5014381;28;20380;-73
2021/04/19 05:55:52;;;;;;;22.35;15.68;;;8.90;99.90;;;;;;5015243;28;20041;-73
2021/04/19 05:58:31;;;;;;;19.65;15.27;;;8.70;99.90;;;;;;5010193;28;20014;-74
2021/04/19 06:01:08;;;;;;;20.35;15.10;;;8.90;99.90;;;;;;5010611;28;20044;-72
2021/04/19 06:03:46;;;;;;;22.20;15.68;;;8.90;99.90;;;;;;5013663;28;20041;-72
2021/04/19 06:06:24;;;;;;;84.22;48.60;;;9.10;99.90;;;;;;5014459;28;20033;-72
2021/04/19 06:09:10;;;;;;;37.42;25.80;;;9.70;99.90;;;;;;5013975;28;20026;-72
2021/04/19 06:11:43;;;;;;;21.58;16.20;;;9.70;99.90;;;;;;5014759;28;20354;-73
2021/04/19 06:14:11;;;;;;;24.58;17.27;;;9.40;99.90;;;;;;5013346;28;20021;-73
2021/04/19 06:16:38;;;;;;;24.27;17.58;;;9.40;99.90;;;;;;5015062;28;20029;-72
2021/04/19 06:19:11;;;;;;;23.08;17.83;;;9.40;99.90;;;;;;5013266;28;20182;-73
2021/04/19 06:21:39;;;;;;;24.50;17.92;;;9.50;99.90;;;;;;5013521;28;20064;-73
2021/04/19 06:24:07;;;;;;;24.15;17.50;;;9.40;99.90;;;;;;5013024;28;20076;-73
2021/04/19 06:26:34;;;;;;;22.08;15.55;;;9.40;99.90;;;;;;5013732;28;20057;-73
2021/04/19 06:29:00;;;;;;;20.48;15.63;;;9.40;99.90;;;;;;5012686;28;20018;-73
2021/04/19 06:31:26;;;;;;;20.77;16.23;;;9.50;99.90;;;;;;5014437;28;20472;-73
2021/04/19 06:34:01;;;;;;;21.50;16.15;;;9.50;99.90;;;;;;5013223;28;20029;-73
2021/04/19 06:36:27;;;;;;;20.90;15.43;;;9.40;99.90;;;;;;5014016;28;20081;-72
2021/04/19 06:38:52;;;;;;;19.33;14.75;;;9.50;99.90;;;;;;4995586;28;20152;-73
2021/04/19 06:41:18;;;;;;;19.17;14.80;;;9.60;99.90;;;;;;5029792;28;20047;-74
2021/04/19 06:43:45;;;;;;;19.42;14.60;;;9.60;99.90;;;;;;5025943;28;20022;-73
2021/04/19 06:46:12;;;;;;;19.77;13.57;;;9.80;99.90;;;;;;5014393;28;20576;-74
2021/04/19 06:48:40;;;;;;;20.30;13.75;;;9.80;99.90;;;;;;5013330;28;20061;-73
2021/04/19 06:51:06;;;;;;;19.17;14.07;;;9.90;99.90;;;;;;5014033;28;20374;-74
2021/04/19 06:53:32;;;;;;;18.70;14.50;;;10.10;99.90;;;;;;5013184;28;20080;-73
2021/04/19 06:55:58;;;;;;;21.98;15.10;;;10.30;99.90;;;;;;5013959;28;20042;-73
2021/04/19 06:58:25;;;;;;;22.95;14.85;;;9.80;99.90;;;;;;5012979;28;20582;-73
2021/04/19 07:00:54;;;;;;;19.17;13.75;;;9.80;99.90;;;;;;5012851;28;20037;-73
2021/04/19 07:03:21;;;;;;;19.55;14.55;;;10.00;99.90;;;;;;5007522;28;20386;-73
2021/04/19 07:05:49;;;;;;;20.65;14.30;;;10.30;99.90;;;;;;5013282;28;20061;-73
2021/04/19 07:08:25;;;;;;;22.50;13.82;;;10.40;99.90;;;;;;5012926;28;20024;-74
2021/04/19 07:10:58;;;;;;;18.45;13.45;;;10.70;99.90;;;;;;5013650;28;20026;-74
2021/04/19 07:13:25;;;;;;;22.42;14.57;;;10.90;99.90;;;;;;5012572;28;20022;-74
2021/04/19 07:15:52;;;;;;;21.02;15.07;;;10.90;99.90;;;;;;5013863;28;20046;-73
2021/04/19 07:18:18;;;;;;;22.40;14.23;;;10.90;99.90;;;;;;5012419;28;20105;-74
2021/04/19 07:20:44;;;;;;;21.08;14.65;;;11.00;99.90;;;;;;5012954;28;20105;-73
2021/04/19 07:23:11;;;;;;;21.83;14.55;;;11.00;99.90;;;;;;5012495;28;20482;-73
2021/04/19 07:25:37;;;;;;;23.40;15.05;;;11.20;99.90;;;;;;5013174;28;20036;-73
2021/04/19 07:28:05;;;;;;;22.52;15.75;;;11.20;99.90;;;;;;5011258;28;20030;-73
2021/04/19 07:30:31;;;;;;;20.80;15.02;;;11.30;99.90;;;;;;5012222;28;20030;-73
2021/04/19 07:32:57;;;;;;;20.55;15.10;;;11.10;99.90;;;;;;5011574;28;20029;-73
2021/04/19 07:35:34;;;;;;;21.58;14.98;;;10.90;99.90;;;;;;5011912;28;20050;-73
2021/04/19 07:38:03;;;;;;;24.45;16.70;;;10.80;99.90;;;;;;5011649;28;20026;-73
2021/04/19 07:40:39;;;;;;;22.95;16.17;;;10.60;99.90;;;;;;5011043;28;20382;-73
2021/04/19 07:43:18;;;;;;;24.67;16.83;;;10.50;99.90;;;;;;5012313;28;20428;-74
2021/04/19 07:46:00;;;;;;;25.35;16.58;;;10.30;99.90;;;;;;5011155;28;20084;-74
2021/04/19 07:48:33;;;;;;;24.38;17.15;;;10.30;99.90;;;;;;5010894;28;20026;-74
2021/04/19 07:50:59;;;;;;;27.35;17.42;;;10.10;99.90;;;;;;5008768;28;20072;-74
2021/04/19 07:53:25;;;;;;;24.92;18.23;;;10.00;99.90;;;;;;5012357;28;20034;-73
2021/04/19 07:55:52;;;;;;;25.77;17.10;;;10.10;99.90;;;;;;5012176;28;20038;-73
2021/04/19 07:58:23;;;;;;;26.70;18.02;;;10.30;99.90;;;;;;4995036;28;20018;-74
2021/04/19 08:00:51;;;;;;;27.92;18.80;;;10.50;99.90;;;;;;5012011;28;20053;-74
2021/04/19 08:03:20;;;;;;;27.15;17.30;;;10.60;99.90;;;;;;5012623;28;20385;-74
2021/04/19 08:05:51;;;;;;;24.00;17.58;;;10.70;99.90;;;;;;5011583;28;20030;-74
2021/04/19 08:08:37;;;;;;;27.42;16.85;;;10.60;99.90;;;;;;4994902;28;20034;-74
2021/04/19 08:11:09;;;;;;;25.08;16.88;;;10.70;99.90;;;;;;5012445;28;20032;-74
2021/04/19 08:13:35;;;;;;;24.17;16.55;;;10.90;99.90;;;;;;5012086;28;20121;-73
2021/04/19 08:16:26;;;;;;;24.60;16.40;;;11.30;99.90;;;;;;5011703;28;20046;-73
2021/04/19 08:18:59;;;;;;;23.05;16.42;;;11.30;99.90;;;;;;5011509;28;20030;-73
2021/04/19 08:21:26;;;;;;;22.85;15.70;;;11.40;99.90;;;;;;5011995;28;20030;-73
2021/04/19 08:23:52;;;;;;;23.30;16.55;;;11.40;99.90;;;;;;5011515;28;20445;-74
2021/04/19 08:26:18;;;;;;;24.95;16.70;;;10.90;99.90;;;;;;5012291;28;20466;-73
2021/04/19 08:28:46;;;;;;;25.48;18.27;;;11.30;99.90;;;;;;5011124;28;20046;-74
2021/04/19 08:31:12;;;;;;;23.98;17.00;;;11.00;99.90;;;;;;5012075;28;20030;-73
2021/04/19 08:33:39;;;;;;;24.13;16.85;;;11.10;99.90;;;;;;5011432;28;20133;-75
2021/04/19 08:36:13;;;;;;;23.15;16.35;;;10.90;99.90;;;;;;5010816;28;20471;-75
2021/04/19 08:38:39;;;;;;;22.00;15.48;;;11.40;99.90;;;;;;5011371;28;20037;-74
2021/04/19 08:41:06;;;;;;;20.98;15.73;;;11.40;99.90;;;;;;5021844;28;20061;-73
2021/04/19 08:43:36;;;;;;;23.10;16.58;;;11.50;99.90;;;;;;5010266;28;20381;-75
2021/04/19 08:46:03;;;;;;;21.48;16.63;;;11.20;99.90;;;;;;5008201;28;20055;-74
2021/04/19 08:48:31;;;;;;;22.13;15.68;;;10.90;99.90;;;;;;5010912;28;20488;-74
2021/04/19 08:51:02;;;;;;;26.58;15.93;;;10.40;99.90;;;;;;5009585;28;20029;-75
2021/04/19 08:53:28;;;;;;;22.50;15.55;;;10.60;99.90;;;;;;5010207;28;20026;-74
2021/04/19 08:55:55;;;;;;;23.35;16.55;;;11.00;99.90;;;;;;5009832;28;20046;-76
2021/04/19 08:58:20;;;;;;;21.42;14.70;;;11.40;99.90;;;;;;5010784;28;20038;-74
2021/04/19 09:00:59;;;;;;;25.98;16.20;;;11.80;99.90;;;;;;5011065;28;20117;-77
2021/04/19 09:03:25;;;;;;;21.75;14.82;;;12.60;99.90;;;;;;5011229;28;20053;-77
2021/04/19 09:05:51;;;;;;;22.02;14.68;;;13.20;99.90;;;;;;5009578;28;20065;-76
2021/04/19 09:08:18;;;;;;;22.30;15.27;;;12.60;99.90;;;;;;5010322;28;20030;-74
2021/04/19 09:10:59;;;;;;;21.23;14.55;;;12.80;99.90;;;;;;4992554;28;20022;-73
2021/04/19 09:13:35;;;;;;;;;;;12.70;99.90;;;;;;5010808;28;20389;-74
2021/04/19 09:16:14;;;;;;;22.67;15.63;;;12.70;99.90;;;;;;5010569;28;19924;-77
2021/04/19 09:18:53;;;;;;;24.30;16.48;;;12.80;99.90;;;;;;5010007;28;20076;-73
2021/04/19 09:21:36;;;;;;;23.83;15.93;;;12.90;99.90;;;;;;5010758;28;20421;-73
2021/04/19 09:24:02;;;;;;;23.00;15.35;;;12.60;99.90;;;;;;5011531;28;20064;-73
2021/04/19 09:26:54;;;;;;;21.85;14.45;;;12.40;99.90;;;;;;5010809;28;20021;-73
2021/04/19 09:29:26;;;;;;;20.98;15.18;;;12.70;99.90;;;;;;5011106;28;20026;-77
2021/04/19 09:32:18;;;;;;;19.15;14.65;;;12.90;99.90;;;;;;5009976;28;20434;-76
2021/04/19 09:34:49;;;;;;;21.83;13.55;;;13.40;99.90;;;;;;5004984;28;20050;-78
2021/04/19 09:37:19;;;;;;;18.17;13.18;;;13.60;99.90;;;;;;5010597;28;20077;-74
2021/04/19 09:39:50;;;;;;;21.03;14.30;;;13.30;99.90;;;;;;5009852;28;20033;-75
2021/04/19 09:42:38;;;;;;;19.05;12.98;;;13.50;99.90;;;;;;5029989;28;20271;-76
2021/04/19 09:45:05;;;;;;;19.00;13.88;;;13.40;99.90;;;;;;5012109;28;20026;-75
2021/04/19 09:47:47;;;;;;;20.98;15.02;;;13.30;99.90;;;;;;5010994;28;20034;-75
2021/04/19 09:50:15;;;;;;;22.33;15.90;;;13.20;99.90;;;;;;5010687;28;20123;-77
2021/04/19 09:52:42;;;;;;;24.83;15.65;;;13.20;99.90;;;;;;5010447;28;20030;-76
2021/04/19 09:55:08;;;;;;;17.55;11.70;;;13.40;99.90;;;;;;4992650;28;20080;-74
2021/04/19 09:57:37;;;;;;;18.25;12.43;;;12.80;99.90;;;;;;5010956;28;20073;-73
2021/04/19 10:00:06;;;;;;;22.50;15.30;;;12.60;99.90;;;;;;5010165;28;20029;-76
2021/04/19 10:02:34;;;;;;;19.42;13.38;;;12.90;99.90;;;;;;5010967;28;20022;-75
2021/04/19 10:05:02;;;;;;;21.20;13.63;;;13.00;99.90;;;;;;5009793;28;20022;-76
2021/04/19 10:07:29;;;;;;;19.35;13.75;;;13.20;99.90;;;;;;5010892;28;20057;-76
2021/04/19 10:09:55;;;;;;;18.40;13.15;;;13.20;99.90;;;;;;5010946;28;20030;-74
2021/04/19 10:12:22;;;;;;;21.05;13.05;;;13.50;99.90;;;;;;5010032;28;20050;-73
2021/04/19 10:14:48;;;;;;;19.30;12.77;;;13.30;99.90;;;;;;5013527;28;20018;-75
2021/04/19 10:17:18;;;;;;;20.35;12.95;;;13.00;99.90;;;;;;5013908;28;20041;-75
2021/04/19 10:19:45;;;;;;;17.63;11.32;;;12.90;99.90;;;;;;5010714;28;20030;-74
2021/04/19 10:22:12;;;;;;;18.38;13.80;;;12.70;99.90;;;;;;5011036;28;20030;-73
2021/04/19 10:24:58;;;;;;;17.83;11.43;;;12.40;99.90;;;;;;5013557;28;20018;-75
2021/04/19 10:27:24;;;;;;;17.95;13.25;;;12.30;99.90;;;;;;5011493;28;20061;-74
2021/04/19 10:29:52;;;;;;;18.45;12.00;;;12.80;99.90;;;;;;5010979;28;20026;-74
2021/04/19 10:32:27;;;;;;;19.63;12.88;;;12.70;99.90;;;;;;5012781;28;20042;-74
2021/04/19 10:34:53;;;;;;;19.20;12.45;;;12.30;99.90;;;;;;5013125;28;20033;-76
2021/04/19 10:37:20;;;;;;;17.73;12.48;;;11.90;99.90;;;;;;5008964;28;20084;-74
2021/04/19 10:39:46;;;;;;;17.55;12.13;;;12.40;99.90;;;;;;5013674;28;20026;-74
2021/04/19 10:42:12;;;;;;;16.23;12.63;;;12.20;99.90;;;;;;5012576;28;20029;-74
2021/04/19 10:44:43;;;;;;;19.20;12.43;;;12.60;99.90;;;;;;5013505;28;20461;-74
2021/04/19 10:47:11;;;;;;;19.77;12.48;;;12.90;99.90;;;;;;5009927;28;20041;-74
2021/04/19 10:49:38;;;;;;;19.45;11.85;;;11.70;99.90;;;;;;5013429;28;20106;-75
2021/04/19 10:52:06;;;;;;;14.77;10.55;;;11.00;99.90;;;;;;5012474;28;20025;-75
2021/04/19 10:54:38;;;;;;;12.73;9.77;;;11.40;99.90;;;;;;5010803;28;20026;-74
2021/04/19 10:57:07;;;;;;;10.85;8.40;;;11.10;99.90;;;;;;5011874;28;20033;-74
2021/04/19 10:59:33;;;;;;;10.50;8.25;;;11.00;99.90;;;;;;5010846;28;20018;-74
2021/04/19 11:02:11;;;;;;;12.50;9.45;;;11.10;99.90;;;;;;5011807;28;20030;-75
2021/04/19 11:04:39;;;;;;;11.38;8.93;;;11.30;99.90;;;;;;5010451;28;20022;-74
2021/04/19 11:07:23;;;;;;;13.40;9.50;;;10.90;99.90;;;;;;5012449;28;20060;-75
2021/04/19 11:10:25;;;;;;;12.32;8.43;;;11.10;99.90;;;;;;5011544;28;20449;-75
2021/04/19 11:13:02;;;;;;;11.25;8.20;;;11.10;99.90;;;;;;5007874;28;20524;-75
2021/04/19 11:15:41;;;;;;;11.30;8.18;;;11.50;99.90;;;;;;5011952;28;20067;-74
2021/04/19 11:18:26;;;;;;;10.45;8.15;;;11.30;99.90;;;;;;5012243;28;20030;-75
2021/04/19 11:20:53;;;;;;;10.55;8.10;;;11.50;99.90;;;;;;5009960;28;20056;-75
2021/04/19 11:23:27;;;;;;;11.15;7.38;;;11.80;99.90;;;;;;5000757;28;20029;-74
2021/04/19 11:26:01;;;;;;;9.77;6.75;;;11.30;99.90;;;;;;5009598;28;20397;-74
2021/04/19 11:28:31;;;;;;;8.00;6.55;;;11.10;99.90;;;;;;5011355;28;20022;-75
2021/04/19 11:31:01;;;;;;;9.13;7.07;;;11.00;99.90;;;;;;5011953;28;20025;-74
2021/04/19 11:33:28;;;;;;;11.13;8.18;;;10.90;99.90;;;;;;5000126;28;20030;-74
2021/04/19 11:36:02;;;;;;;11.25;7.70;;;11.20;99.90;;;;;;5011795;28;20042;-74
2021/04/19 11:38:29;;;;;;;11.38;8.35;;;11.50;99.90;;;;;;5007786;28;20028;-76
2021/04/19 11:41:03;;;;;;;11.82;9.07;;;11.50;99.90;;;;;;5011392;28;20690;-76
2021/04/19 11:43:31;;;;;;;11.63;8.88;;;11.80;99.90;;;;;;5011432;28;20393;-72
2021/04/19 11:46:00;;;;;;;12.25;8.68;;;11.60;99.90;;;;;;5013070;28;20026;-72
2021/04/19 11:48:28;;;;;;;9.88;7.75;;;11.50;99.90;;;;;;5011987;28;20030;-72
2021/04/19 11:50:54;;;;;;;9.77;8.00;;;11.20;99.90;;;;;;5012278;28;20018;-72
2021/04/19 11:53:31;;;;;;;13.38;8.85;;;11.50;99.90;;;;;;4993830;28;20029;-72
2021/04/19 11:55:57;;;;;;;11.60;7.82;;;11.70;99.90;;;;;;5012256;28;20038;-72
2021/04/19 11:58:23;;;;;;;10.77;7.72;;;11.70;99.90;;;;;;5011949;28;20026;-71
2021/04/19 12:00:52;;;;;;;11.25;7.55;;;11.70;99.90;;;;;;4995088;28;20040;-72
2021/04/19 12:03:25;;;;;;;11.15;7.57;;;11.70;99.90;;;;;;5011510;28;20113;-72
2021/04/19 12:05:51;;;;;;;9.95;7.68;;;11.70;99.90;;;;;;5012188;28;20022;-72
2021/04/19 12:08:17;;;;;;;9.93;8.05;;;11.40;99.90;;;;;;5011462;28;20030;-72
2021/04/19 12:10:43;;;;;;;8.43;7.03;;;11.40;99.90;;;;;;5012102;28;20026;-74
2021/04/19 12:13:14;;;;;;;10.40;7.75;;;11.30;99.90;;;;;;4994117;28;20449;-75
2021/04/19 12:15:45;;;;;;;10.60;7.25;;;11.20;99.90;;;;;;5011364;28;20046;-75
2021/04/19 12:18:12;;;;;;;8.90;5.97;;;11.30;99.90;;;;;;4993148;28;20057;-75
2021/04/19 12:20:38;;;;;;;7.57;6.10;;;11.40;99.90;;;;;;5011980;28;20061;-73
2021/04/19 12:23:05;;;;;;;8.80;6.85;;;11.30;99.90;;;;;;5011394;28;20033;-73
2021/04/19 12:25:30;;;;;;;8.65;6.40;;;11.40;99.90;;;;;;5010253;28;20386;-76
2021/04/19 12:27:57;;;;;;;8.77;6.45;;;11.40;99.90;;;;;;5011169;28;20473;-73
2021/04/19 12:30:23;;;;;;;9.27;7.18;;;11.60;99.90;;;;;;5012033;28;20069;-73
2021/04/19 12:32:49;;;;;;;8.75;6.38;;;11.40;99.90;;;;;;5010939;28;20491;-72
2021/04/19 12:35:16;;;;;;;10.43;6.45;;;11.50;99.90;;;;;;5011535;28;20512;-73
2021/04/19 12:37:42;;;;;;;9.02;7.07;;;11.70;99.90;;;;;;5010533;28;20101;-74
2021/04/19 12:40:08;;;;;;;10.43;7.47;;;11.80;99.90;;;;;;5018294;28;20413;-75
2021/04/19 12:42:34;;;;;;;9.77;7.18;;;11.90;99.90;;;;;;4995659;28;20052;-76
2021/04/19 12:45:00;;;;;;;10.15;7.57;;;12.00;99.90;;;;;;5010357;28;20377;-74
2021/04/19 12:47:29;;;;;;;8.75;6.53;;;12.00;99.90;;;;;;5010417;28;20390;-75